Time;durP1;ratioP1;P1;durP2;ratioP2;P2;SDS_P1;SDS_P2;PMS_P1;PMS_P2;Temp;Humidity;BMP_temperature;BMP_pressure;BME280_temperature;BME280_humidity;BME280_pressure;Samples;Min_cycle;Max_cycle;Signal;HPM_P1;HPM_P2
2023/01/12 00:00:34;;;;;;;;;2.75;1.00;;;;;11.35;68.87;101184.06;6303890;22;45663;-80
2023/01/12 00:02:59;;;;;;;;;3.00;1.00;;;;;11.35;69.07;101179.66;6302833;22;45625;-79
2023/01/12 00:05:24;;;;;;;;;0.25;0.25;;;;;11.37;69.29;101184.81;6303552;22;46560;-81
2023/01/12 00:07:50;;;;;;;;;3.75;2.00;;;;;11.36;69.68;101191.84;6302512;22;46358;-77
2023/01/12 00:10:15;;;;;;;;;2.25;1.00;;;;;11.32;69.56;101189.53;6302467;22;45499;-80
2023/01/12 00:12:40;;;;;;;;;1.00;0.00;;;;;11.37;69.59;101187.44;6303385;22;45566;-78
2023/01/12 00:18:27;;;;;;;;;6.25;1.75;;;;;11.35;69.81;101168.31;6303373;22;45980;-77
2023/01/12 00:20:53;;;;;;;;;2.00;1.00;;;;;11.33;69.85;101152.72;6305180;22;45631;-80
2023/01/12 00:23:19;;;;;;;;;2.75;1.00;;;;;11.32;70.13;101144.94;6305924;22;45532;-80
2023/01/12 00:25:49;;;;;;;;;2.25;1.00;;;;;11.36;69.95;101151.66;6307568;22;45594;-80
2023/01/12 00:28:14;;;;;;;;;3.00;2.75;;;;;11.28;69.93;101148.69;6307731;22;45624;-79
2023/01/12 00:30:40;;;;;;;;;2.00;1.25;;;;;11.36;70.12;101152.50;6304860;22;45616;-80
2023/01/12 00:33:05;;;;;;;;;1.50;1.00;;;;;11.33;70.00;101133.50;6302862;22;45623;-80
2023/01/12 00:35:30;;;;;;;;;6.00;1.25;;;;;11.38;69.84;101136.66;6303132;22;46301;-80
2023/01/12 00:37:57;;;;;;;;;1.00;0.00;;;;;11.38;69.95;101146.31;6302433;22;45970;-80
2023/01/12 00:40:22;;;;;;;;;3.00;1.00;;;;;11.35;69.78;101134.22;6301003;22;45623;-80
2023/01/12 00:48:53;;;;;;;;;4.00;2.00;;;;;11.38;69.69;101135.81;6302492;22;45678;-80
2023/01/12 00:51:18;;;;;;;;;2.50;1.25;;;;;11.34;69.69;101128.13;6302093;22;45858;-79
2023/01/12 00:53:43;;;;;;;;;2.75;1.00;;;;;11.32;69.52;101111.66;6274971;22;45934;-80
2023/01/12 00:56:09;;;;;;;;;3.00;1.00;;;;;11.40;69.74;101100.66;6302283;22;51480;-79
2023/01/12 00:58:34;;;;;;;;;2.50;1.00;;;;;11.36;69.67;101083.44;6302906;22;46046;-80
2023/01/12 01:04:34;;;;;;;;;2.00;0.75;;;;;11.38;69.48;101078.09;6298598;22;45731;-79
2023/01/12 01:07:01;;;;;;;;;3.00;1.75;;;;;11.41;69.60;101086.59;6304492;22;45583;-80
2023/01/12 01:09:26;;;;;;;;;2.00;1.00;;;;;11.39;69.41;101085.03;6304708;22;46088;-79
2023/01/12 01:11:52;;;;;;;;;1.75;1.00;;;;;11.40;69.28;101102.44;6304242;22;45621;-81
2023/01/12 01:14:17;;;;;;;;;5.25;2.00;;;;;11.38;69.67;101099.09;6277381;22;45625;-78
2023/01/12 01:16:42;;;;;;;;;3.25;1.00;;;;;11.42;69.52;101097.94;6304599;22;45688;-79
2023/01/12 01:19:09;;;;;;;;;1.75;1.25;;;;;11.24;69.48;101065.88;6305094;22;46082;-80
2023/01/12 01:21:34;;;;;;;;;2.50;1.00;;;;;11.46;69.37;101102.88;6303604;22;45472;-79
2023/01/12 01:23:59;;;;;;;;;1.00;1.00;;;;;11.20;69.29;101056.56;6303060;22;45475;-78
2023/01/12 01:26:25;;;;;;;;;5.25;1.00;;;;;11.43;69.32;101081.25;6302726;22;45444;-81
2023/01/12 01:28:51;;;;;;;;;2.25;1.00;;;;;11.47;69.24;101093.22;6302507;22;45625;-80
2023/01/12 01:34:38;;;;;;;;;1.25;1.00;;;;;11.35;69.34;101093.09;6302410;22;45641;-79
2023/01/12 01:37:03;;;;;;;;;1.00;1.00;;;;;11.39;69.41;101095.53;6301960;22;46342;-81
2023/01/12 01:39:28;;;;;;;;;2.25;0.25;;;;;11.36;69.46;101097.41;6302159;22;45621;-81
2023/01/12 01:41:54;;;;;;;;;1.00;1.00;;;;;11.34;69.46;101090.56;6302613;22;45484;-81
2023/01/12 01:51:07;;;;;;;;;1.00;0.00;;;;;11.22;69.77;101073.03;6303920;22;45885;-81
2023/01/12 01:53:36;;;;;;;;;2.00;0.50;;;;;11.30;69.68;101068.94;6307934;22;45628;-81
2023/01/12 01:56:09;;;;;;;;;1.00;1.00;;;;;11.32;69.65;101069.69;6307790;22;45377;-81
2023/01/12 01:58:41;;;;;;;;;1.50;1.00;;;;;11.32;69.80;101071.47;6303027;22;46783;-81
2023/01/12 02:01:07;;;;;;;;;2.00;2.00;;;;;11.28;69.78;101070.00;6301404;22;47171;-79
2023/01/12 02:03:33;;;;;;;;;3.75;1.50;;;;;11.35;69.69;101079.13;6301157;22;45679;-80
2023/01/12 02:05:59;;;;;;;;;1.00;1.00;;;;;11.33;69.94;101076.63;6302570;22;45521;-81
2023/01/12 02:08:33;;;;;;;;;3.75;1.50;;;;;11.35;69.90;101079.97;6301514;22;46164;-81
2023/01/12 02:11:01;;;;;;;;;0.75;0.00;;;;;11.35;70.05;101081.75;6302393;22;45889;-79
2023/01/12 02:16:22;;;;;;;;;2.50;1.50;;;;;11.31;70.03;101068.00;6302543;22;45512;-81
2023/01/12 02:18:56;;;;;;;;;2.00;0.50;;;;;11.27;69.90;101068.31;6301865;22;47323;-80
2023/01/12 02:21:39;;;;;;;;;1.00;0.25;;;;;11.34;70.05;101062.53;6302296;22;45684;-79
2023/01/12 02:24:32;;;;;;;;;0.00;0.00;;;;;11.36;70.14;101065.06;6301481;22;45736;-81
2023/01/12 02:27:29;;;;;;;;;3.25;1.00;;;;;11.34;69.99;101064.31;6302022;22;45573;-79
2023/01/12 02:33:17;;;;;;;;;1.50;0.00;;;;;11.35;70.05;101047.66;6302349;22;45783;-79
2023/01/12 02:35:55;;;;;;;;;2.00;0.00;;;;;11.37;69.91;101051.03;6303498;22;45515;-78
2023/01/12 02:38:41;;;;;;;;;1.25;0.75;;;;;11.39;69.92;101049.13;6308857;22;45621;-78
2023/01/12 02:42:39;;;;;;;;;2.50;1.50;;;;;11.42;69.88;101045.47;6309577;22;46281;-80
2023/01/12 02:44:35;;;;;;;;;1.75;1.00;;;;;11.45;69.98;101035.59;6307269;22;45530;-80
2023/01/12 02:50:56;;;;;;;;;1.25;1.00;;;;;11.47;69.99;101004.84;6302235;22;45468;-81
2023/01/12 02:53:42;;;;;;;;;2.00;1.00;;;;;11.46;69.85;101024.16;6301452;22;46408;-81
2023/01/12 02:56:10;;;;;;;;;1.25;0.25;;;;;11.44;69.71;101007.69;6302432;22;45927;-80
2023/01/12 02:58:41;;;;;;;;;0.00;0.00;;;;;11.49;69.79;100983.75;6301638;22;45591;-81
2023/01/12 03:01:09;;;;;;;;;0.00;0.00;;;;;11.45;69.78;100995.41;6301264;22;45738;-81
2023/01/12 03:03:38;;;;;;;;;3.25;0.75;;;;;11.51;69.73;101005.47;6301719;22;45443;-80
2023/01/12 03:06:04;;;;;;;;;1.00;0.00;;;;;11.50;69.52;100996.75;6301662;22;47128;-80
2023/01/12 03:08:31;;;;;;;;;2.00;0.75;;;;;11.50;69.67;101002.00;6301409;22;45650;-79
2023/01/12 03:11:00;;;;;;;;;2.25;1.00;;;;;11.52;69.99;100983.53;6301228;22;45416;-78
2023/01/12 03:13:30;;;;;;;;;1.00;1.00;;;;;11.45;69.81;100963.91;6301375;22;46495;-78
2023/01/12 03:15:58;;;;;;;;;0.75;0.25;;;;;11.53;69.79;100972.09;6302000;22;46291;-78
2023/01/12 03:18:41;;;;;;;;;2.00;0.50;;;;;11.52;69.80;100979.13;6301481;22;45485;-78
2023/01/12 03:21:38;;;;;;;;;2.00;1.00;;;;;11.53;70.07;100970.31;6302014;22;45479;-79
2023/01/12 03:24:08;;;;;;;;;1.00;1.00;;;;;11.45;70.22;100953.41;6175893;23;45526;-79
2023/01/12 03:26:38;;;;;;;;;1.00;0.00;;;;;11.46;70.24;100950.69;6177615;23;45652;-79
2023/01/12 03:29:30;;;;;;;;;1.00;1.00;;;;;11.53;70.15;100969.47;6180465;23;45734;-77
2023/01/12 03:31:56;;;;;;;;;2.50;0.50;;;;;11.48;70.52;100961.94;6176964;23;45740;-80
2023/01/12 03:34:22;;;;;;;;;1.25;0.25;;;;;11.52;70.32;100952.06;6176489;23;45567;-79
2023/01/12 03:37:05;;;;;;;;;1.25;0.00;;;;;11.44;70.36;100941.28;6176417;23;45590;-79
2023/01/12 03:40:01;;;;;;;;;0.50;0.00;;;;;11.49;70.45;100961.00;6175882;23;45529;-80
2023/01/12 03:42:32;;;;;;;;;0.00;0.00;;;;;11.50;70.49;100962.66;6175499;23;45588;-80
2023/01/12 03:45:22;;;;;;;;;2.25;0.00;;;;;11.51;70.43;100950.38;6175517;23;45635;-79
2023/01/12 03:48:11;;;;;;;;;1.75;0.00;;;;;11.51;70.51;100940.72;6175959;23;46596;-79
2023/01/12 03:50:46;;;;;;;;;3.50;0.00;;;;;11.45;70.53;100933.28;6176251;23;45823;-78
2023/01/12 03:53:17;;;;;;;;;1.75;0.50;;;;;11.49;70.74;100934.75;6150703;23;45507;-79
2023/01/12 03:55:45;;;;;;;;;1.00;1.00;;;;;11.50;70.66;100931.16;6176285;23;46161;-79
2023/01/12 03:58:11;;;;;;;;;0.00;0.00;;;;;11.44;70.51;100926.38;6152453;23;47053;-78
2023/01/12 04:00:37;;;;;;;;;0.00;0.00;;;;;11.50;70.91;100918.03;6226567;22;45459;-78
2023/01/12 04:03:16;;;;;;;;;1.00;0.00;;;;;11.50;70.87;100925.91;6303832;22;45546;-80
2023/01/12 04:05:43;;;;;;;;;1.00;0.00;;;;;11.50;70.91;100915.41;6303790;22;45586;-81
2023/01/12 04:08:10;;;;;;;;;2.50;0.50;;;;;11.44;71.04;100894.88;6303565;22;45724;-79
2023/01/12 04:10:35;;;;;;;;;2.00;1.00;;;;;11.44;70.97;100904.53;6306400;22;45631;-80
2023/01/12 04:13:00;;;;;;;;;1.25;0.75;;;;;11.45;71.10;100901.78;6307953;22;45725;-79
2023/01/12 04:15:26;;;;;;;;;1.25;0.75;;;;;11.47;71.09;100899.91;6304203;22;46589;-80
2023/01/12 04:17:51;;;;;;;;;1.50;0.75;;;;;11.40;70.78;100872.41;6301586;22;45500;-80
2023/01/12 04:20:17;;;;;;;;;1.50;0.00;;;;;11.45;71.01;100882.56;6301261;22;45568;-80
2023/01/12 04:22:44;;;;;;;;;2.75;1.00;;;;;11.43;70.73;100874.84;6301512;22;45627;-79
2023/01/12 04:25:14;;;;;;;;;1.25;0.00;;;;;11.38;71.18;100874.31;6302443;22;46522;-78
2023/01/12 04:27:52;;;;;;;;;1.50;0.00;;;;;11.39;70.95;100859.44;6302430;22;46303;-80
2023/01/12 04:30:21;;;;;;;;;2.25;1.00;;;;;11.46;70.91;100864.13;6302814;22;45463;-80
2023/01/12 04:32:47;;;;;;;;;2.75;1.50;;;;;11.46;70.94;100847.53;6302152;22;45827;-80
2023/01/12 04:35:12;;;;;;;;;0.50;0.00;;;;;11.49;70.73;100847.34;6301923;22;48786;-80
2023/01/12 04:37:38;;;;;;;;;4.50;0.00;;;;;11.47;70.76;100851.84;6302173;22;46959;-79
2023/01/12 04:40:05;;;;;;;;;1.50;0.75;;;;;11.39;70.84;100818.25;6274684;22;45869;-79
2023/01/12 04:45:14;;;;;;;;;6.00;2.00;;;;;11.52;70.75;100860.22;6303253;22;45508;-80
2023/01/12 04:47:40;;;;;;;;;2.00;1.00;;;;;11.49;70.67;100877.03;6302687;22;46108;-81
2023/01/12 04:50:06;;;;;;;;;2.75;0.50;;;;;11.48;70.88;100869.25;6275305;22;45594;-79
2023/01/12 04:52:31;;;;;;;;;1.00;1.00;;;;;11.53;70.81;100865.38;6274859;22;45846;-81
2023/01/12 04:54:57;;;;;;;;;3.00;1.00;;;;;11.42;70.80;100846.94;6303354;22;46278;-79
2023/01/12 04:57:22;;;;;;;;;1.75;1.00;;;;;11.56;70.76;100870.38;6304478;22;45801;-79
2023/01/12 04:59:47;;;;;;;;;3.00;1.00;;;;;11.44;70.70;100844.19;6304023;22;45574;-79
2023/01/12 05:02:13;;;;;;;;;1.25;0.50;;;;;11.50;70.69;100852.44;6304906;22;45598;-79
2023/01/12 05:11:27;;;;;;;;;2.00;0.00;;;;;11.63;70.71;100847.19;6302200;22;45680;-81
2023/01/12 05:13:54;;;;;;;;;1.25;1.00;;;;;11.64;70.66;100838.38;6302117;22;45921;-78
2023/01/12 05:16:19;;;;;;;;;1.00;0.00;;;;;11.60;70.70;100829.88;6302083;22;47427;-79
2023/01/12 05:22:07;;;;;;;;;3.25;0.50;;;;;11.64;70.71;100835.75;6306312;22;45377;-78
2023/01/12 05:24:33;;;;;;;;;5.25;1.00;;;;;11.60;70.74;100823.78;6306134;22;45666;-78
2023/01/12 05:26:59;;;;;;;;;3.00;1.00;;;;;11.71;70.52;100834.34;6302674;22;45376;-82
2023/01/12 05:29:25;;;;;;;;;3.50;0.00;;;;;11.69;70.73;100844.13;6301793;22;47057;-80
2023/01/12 05:31:50;;;;;;;;;1.25;1.00;;;;;11.71;70.26;100834.34;6302734;22;45529;-80
2023/01/12 05:37:37;;;;;;;;;1.00;0.00;;;;;11.68;70.68;100830.16;6301855;22;46086;-78
2023/01/12 05:40:03;;;;;;;;;1.00;0.75;;;;;11.69;70.40;100839.72;6302456;22;46494;-80
2023/01/12 05:45:12;;;;;;;;;1.00;0.00;;;;;11.70;70.38;100833.50;6304543;22;45538;-78
2023/01/12 05:47:38;;;;;;;;;1.00;0.50;;;;;11.72;70.52;100851.75;6275606;22;47281;-80
2023/01/12 05:53:25;;;;;;;;;0.75;0.75;;;;;11.73;70.63;100838.56;6302043;22;45467;-80
2023/01/12 05:55:50;;;;;;;;;1.00;0.75;;;;;11.73;70.67;100835.09;6303065;22;45623;-80
2023/01/12 05:58:16;;;;;;;;;1.25;0.25;;;;;11.77;70.50;100852.28;6301985;22;47800;-80
2023/01/12 06:00:41;;;;;;;;;1.00;1.00;;;;;11.79;70.66;100847.78;6301313;22;46896;-80
2023/01/12 06:03:06;;;;;;;;;1.50;0.25;;;;;11.82;70.58;100849.38;6301658;22;45555;-78
2023/01/12 06:08:53;;;;;;;;;2.00;1.00;;;;;11.85;70.69;100843.88;6297231;22;46184;-80
2023/01/12 06:14:05;;;;;;;;;0.25;0.25;;;;;11.85;70.92;100826.34;6302072;22;45713;-81
2023/01/12 06:16:30;;;;;;;;;1.00;0.50;;;;;11.87;71.19;100829.72;6302065;22;45525;-80
2023/01/12 06:18:55;;;;;;;;;2.75;0.00;;;;;11.82;71.05;100823.13;6273407;22;47197;-79
2023/01/12 06:21:22;;;;;;;;;3.00;0.75;;;;;11.83;71.13;100822.13;6301899;22;45546;-79
2023/01/12 06:23:47;;;;;;;;;2.25;0.00;;;;;11.77;71.18;100813.75;6308111;22;45416;-80
2023/01/12 06:26:13;;;;;;;;;1.00;0.00;;;;;11.80;71.37;100832.88;6308811;22;45758;-81
2023/01/12 06:28:39;;;;;;;;;0.00;0.00;;;;;11.82;71.36;100833.63;6306338;22;46281;-76
2023/01/12 06:31:07;;;;;;;;;1.00;0.00;;;;;11.77;71.29;100847.88;6303955;22;45912;-79
2023/01/12 06:33:33;;;;;;;;;4.75;1.00;;;;;11.71;71.21;100832.53;6305325;22;45692;-79
2023/01/12 06:39:20;;;;;;;;;1.50;0.25;;;;;11.69;71.45;100846.75;6304055;22;46075;-76
2023/01/12 06:44:29;;;;;;;;;0.75;0.00;;;;;11.75;71.48;100860.31;6302845;22;45814;-76
2023/01/12 06:46:54;;;;;;;;;0.25;0.25;;;;;11.79;71.40;100863.53;6302165;22;45585;-79
2023/01/12 06:49:19;;;;;;;;;3.00;0.00;;;;;11.77;71.44;100881.16;6301852;22;45697;-79
2023/01/12 06:51:47;;;;;;;;;1.00;0.00;;;;;11.67;71.27;100864.38;6302403;22;46055;-78
2023/01/12 06:54:13;;;;;;;;;0.25;0.00;;;;;11.66;71.27;100847.78;6302168;22;45596;-81
2023/01/12 06:56:38;;;;;;;;;1.00;0.50;;;;;11.81;71.31;100872.16;6302816;22;45543;-83
2023/01/12 06:59:03;;;;;;;;;3.50;0.25;;;;;11.83;71.49;100874.63;6302064;22;45628;-76
2023/01/12 07:01:29;;;;;;;;;0.00;0.00;;;;;11.83;71.62;100875.47;6302046;22;45649;-75
2023/01/12 07:03:54;;;;;;;;;0.00;0.00;;;;;11.85;71.93;100875.38;6301559;22;45376;-77
2023/01/12 07:09:41;;;;;;;;;0.00;0.00;;;;;11.85;72.51;100872.75;6296714;22;45676;-77
2023/01/12 07:12:07;;;;;;;;;1.00;0.00;;;;;11.89;72.64;100864.53;6301410;22;46128;-77
2023/01/12 07:14:32;;;;;;;;;1.00;0.00;;;;;11.90;72.94;100870.63;6302011;22;45698;-76
2023/01/12 07:16:58;;;;;;;;;0.75;0.00;;;;;11.91;72.80;100861.81;6301269;22;45668;-76
2023/01/12 07:19:23;;;;;;;;;0.00;0.00;;;;;11.92;72.95;100853.00;6301903;22;46708;-74
2023/01/12 07:25:10;;;;;;;;;0.75;0.75;;;;;11.92;72.90;100842.50;6301742;22;45667;-75
2023/01/12 07:27:35;;;;;;;;;1.00;0.00;;;;;11.95;72.82;100853.59;6302285;22;45437;-75
2023/01/12 07:30:00;;;;;;;;;0.00;0.00;;;;;11.92;72.63;100850.38;6302201;22;46329;-75
2023/01/12 07:32:26;;;;;;;;;1.75;1.00;;;;;11.99;72.81;100860.28;6301664;22;46039;-75
2023/01/12 07:34:51;;;;;;;;;2.75;0.25;;;;;11.99;72.65;100854.19;6274663;22;45593;-77
2023/01/12 07:40:38;;;;;;;;;1.25;0.00;;;;;11.96;72.64;100836.91;6302696;22;45579;-77
2023/01/12 07:43:06;;;;;;;;;1.75;0.00;;;;;12.04;72.35;100854.69;6302040;22;45892;-79
2023/01/12 07:45:32;;;;;;;;;0.25;0.25;;;;;12.06;72.32;100858.06;6302153;22;45633;-77
2023/01/12 07:47:57;;;;;;;;;1.00;1.00;;;;;12.05;72.22;100854.59;6299672;22;45714;-76
2023/01/12 07:50:25;;;;;;;;;2.00;1.00;;;;;12.09;71.90;100858.66;6299676;22;45739;-76
2023/01/12 07:52:51;;;;;;;;;2.00;1.00;;;;;12.10;72.17;100843.75;6300793;22;45912;-77
2023/01/12 07:55:18;;;;;;;;;1.00;1.00;;;;;12.09;72.18;100853.41;6300219;22;45655;-76
2023/01/12 07:57:53;;;;;;;;;0.25;0.00;;;;;12.11;71.89;100869.06;6299952;22;45767;-75
2023/01/12 08:00:22;;;;;;;;;0.00;0.00;;;;;12.04;72.07;100839.78;6300798;22;46654;-76
2023/01/12 08:02:48;;;;;;;;;0.00;0.00;;;;;12.12;71.70;100862.88;6302321;22;47085;-76
2023/01/12 08:05:13;;;;;;;;;1.75;0.00;;;;;12.15;71.61;100868.72;6275289;22;45518;-75
2023/01/12 08:11:06;;;;;;;;;0.25;0.00;;;;;12.17;71.61;100869.47;6303923;22;45670;-76
2023/01/12 08:13:32;;;;;;;;;1.50;0.50;;;;;12.22;71.37;100858.63;6308621;22;46195;-76
2023/01/12 08:16:05;;;;;;;;;1.00;1.00;;;;;12.24;71.25;100861.97;6303131;22;45586;-76
2023/01/12 08:18:41;;;;;;;;;0.00;0.00;;;;;12.27;71.59;100867.00;6302568;22;45430;-77
2023/01/12 08:21:13;;;;;;;;;2.00;0.00;;;;;12.20;71.35;100832.44;6302045;22;46263;-77
2023/01/12 08:23:44;;;;;;;;;1.50;0.00;;;;;12.30;71.41;100845.75;6302433;22;46026;-78
2023/01/12 08:26:17;;;;;;;;;0.00;0.00;;;;;12.24;71.33;100840.97;6302391;22;45459;-75
2023/01/12 08:28:49;;;;;;;;;2.50;1.00;;;;;12.32;71.59;100850.88;6274789;22;45728;-76
2023/01/12 08:31:17;;;;;;;;;1.00;0.00;;;;;12.27;71.22;100867.00;6274433;22;47629;-78
2023/01/12 08:33:43;;;;;;;;;0.75;0.75;;;;;12.27;71.06;100856.47;6302197;22;46102;-77
2023/01/12 08:36:12;;;;;;;;;0.75;0.00;;;;;12.32;71.27;100856.97;6302179;22;45640;-78
2023/01/12 08:38:39;;;;;;;;;1.00;0.00;;;;;12.26;71.38;100854.81;6275044;22;45757;-77
2023/01/12 08:44:00;;;;;;;;;1.00;0.00;;;;;12.35;71.53;100861.19;6302170;22;45810;-78
2023/01/12 08:46:27;;;;;;;;;1.00;0.50;;;;;12.35;71.77;100851.50;6302192;22;45629;-78
2023/01/12 08:48:52;;;;;;;;;0.25;0.00;;;;;12.36;71.50;100855.78;6302238;22;45721;-77
2023/01/12 08:51:18;;;;;;;;;0.50;0.00;;;;;12.41;71.47;100863.34;6274296;22;47148;-77
2023/01/12 08:53:44;;;;;;;;;1.25;0.00;;;;;12.41;71.73;100864.19;6302856;22;46313;-77
2023/01/12 08:56:09;;;;;;;;;1.00;0.00;;;;;12.45;71.40;100857.75;6302410;22;45585;-77
2023/01/12 08:58:34;;;;;;;;;0.75;0.00;;;;;12.36;71.87;100847.09;6303163;22;45470;-76
2023/01/12 09:01:12;;;;;;;;;0.75;0.00;;;;;12.48;71.88;100868.03;6302590;22;47114;-78
2023/01/12 09:03:38;;;;;;;;;1.00;1.00;;;;;12.44;71.88;100869.22;6303198;22;46139;-78
2023/01/12 09:12:36;;;;;;;;;2.00;0.25;;;;;12.46;72.59;100864.69;6238642;22;45682;-76
2023/01/12 09:15:01;;;;;;;;;1.00;0.00;;;;;12.36;73.08;100853.16;6240313;22;46113;-77
2023/01/12 09:17:26;;;;;;;;;1.50;1.00;;;;;12.44;73.08;100866.59;6238530;22;45718;-76
2023/01/12 09:19:52;;;;;;;;;0.75;0.00;;;;;12.39;72.97;100866.09;6238326;22;45485;-77
2023/01/12 09:22:17;;;;;;;;;0.00;0.00;;;;;12.43;73.42;100864.91;6237382;22;46359;-77
2023/01/12 09:24:42;;;;;;;;;1.00;0.25;;;;;12.32;73.49;100851.72;6212072;22;47415;-76
2023/01/12 09:27:09;;;;;;;;;2.00;0.00;;;;;12.40;73.54;100865.16;6211860;22;45668;-75
2023/01/12 09:29:34;;;;;;;;;1.50;0.00;;;;;12.44;73.44;100868.38;6237966;22;45538;-76
2023/01/12 09:32:00;;;;;;;;;1.00;0.00;;;;;12.42;73.49;100868.47;6237353;22;46624;-78
2023/01/12 09:34:25;;;;;;;;;1.00;0.00;;;;;12.44;73.71;100871.00;6238181;22;46121;-78
2023/01/12 09:36:51;;;;;;;;;1.50;1.00;;;;;12.47;73.74;100876.03;6212601;22;45988;-76
2023/01/12 09:39:17;;;;;;;;;0.25;0.00;;;;;12.45;73.74;100873.53;6237742;22;45714;-75
2023/01/12 09:47:27;;;;;;;;;0.75;0.00;;;;;12.52;73.71;100873.91;6302912;22;45544;-76
2023/01/12 09:50:02;;;;;;;;;0.00;0.00;;;;;12.52;73.64;100873.91;6302222;22;45483;-75
2023/01/12 09:52:36;;;;;;;;;0.75;0.00;;;;;12.54;73.52;100861.47;6275225;22;45544;-76
2023/01/12 09:55:02;;;;;;;;;1.00;0.50;;;;;12.48;73.34;100860.13;6302157;22;46345;-77
2023/01/12 09:58:01;;;;;;;;;0.50;0.50;;;;;12.46;73.46;100862.06;6302064;22;45769;-76
2023/01/12 10:00:27;;;;;;;;;2.25;1.00;;;;;12.54;73.37;100872.81;6303158;22;45579;-77
2023/01/12 10:03:06;;;;;;;;;0.75;0.00;;;;;12.56;73.16;100870.94;6302567;22;47465;-76
2023/01/12 10:05:39;;;;;;;;;0.50;0.50;;;;;12.54;72.99;100858.84;6303693;22;45890;-78
2023/01/12 10:08:14;;;;;;;;;2.50;1.00;;;;;12.53;73.02;100865.88;6249536;22;45810;-79
2023/01/12 10:10:45;;;;;;;;;3.25;0.00;;;;;12.56;72.81;100863.03;6303308;22;45681;-76
2023/01/12 10:13:13;;;;;;;;;0.75;0.00;;;;;12.60;72.76;100867.09;6302792;22;45454;-78
2023/01/12 10:16:01;;;;;;;;;2.00;1.00;;;;;12.63;72.87;100876.56;6302907;22;45800;-77
2023/01/12 10:18:42;;;;;;;;;1.00;0.50;;;;;12.65;72.79;100887.78;6301869;22;45615;-75
2023/01/12 10:21:10;;;;;;;;;0.00;0.00;;;;;12.69;72.91;100872.59;6301856;22;45931;-77
2023/01/12 10:23:35;;;;;;;;;2.00;0.75;;;;;12.70;72.94;100882.19;6299802;22;46377;-78
2023/01/12 10:26:14;;;;;;;;;2.00;1.00;;;;;12.74;72.48;100876.56;6302050;22;47046;-78
2023/01/12 10:28:43;;;;;;;;;1.00;0.75;;;;;12.77;72.89;100881.59;6301873;22;45656;-78
2023/01/12 10:31:17;;;;;;;;;1.00;0.00;;;;;12.76;73.32;100871.19;6275825;22;45705;-76
2023/01/12 10:34:01;;;;;;;;;1.00;0.50;;;;;12.70;73.34;100874.28;6301959;22;46256;-76
2023/01/12 10:36:28;;;;;;;;;1.00;0.00;;;;;12.77;73.44;100881.59;6302638;22;45878;-78
2023/01/12 10:39:02;;;;;;;;;1.00;0.00;;;;;12.76;73.81;100884.34;6301636;22;45640;-76
2023/01/12 10:41:34;;;;;;;;;1.00;0.00;;;;;12.62;74.00;100843.34;6302422;22;45503;-75
2023/01/12 10:44:02;;;;;;;;;0.00;0.00;;;;;12.79;73.42;100860.47;6276891;22;46559;-76
2023/01/12 10:46:31;;;;;;;;;1.00;0.00;;;;;12.74;73.47;100850.28;6302633;22;45933;-77
2023/01/12 10:49:19;;;;;;;;;1.00;0.00;;;;;12.82;73.26;100863.69;6301707;22;45561;-78
2023/01/12 10:51:52;;;;;;;;;0.50;0.00;;;;;12.85;73.08;100867.84;6301700;22;45543;-76
2023/01/12 10:54:22;;;;;;;;;1.50;0.00;;;;;12.87;73.00;100873.84;6301852;22;45778;-76
2023/01/12 10:57:13;;;;;;;;;1.00;0.00;;;;;12.88;73.01;100865.00;6301721;22;46128;-76
2023/01/12 10:59:40;;;;;;;;;1.75;0.50;;;;;12.89;73.29;100862.28;6303906;22;45606;-76
2023/01/12 11:02:05;;;;;;;;;1.25;1.00;;;;;12.90;72.75;100861.28;6309646;22;45494;-76
2023/01/12 11:04:39;;;;;;;;;1.00;0.50;;;;;12.89;72.78;100856.19;6306840;22;47218;-77
2023/01/12 11:07:10;;;;;;;;;1.50;1.25;;;;;12.89;72.87;100851.75;6302365;22;46550;-77
2023/01/12 11:09:37;;;;;;;;;0.00;0.00;;;;;12.91;72.87;100843.72;6302106;22;45660;-76
2023/01/12 11:12:17;;;;;;;;;10.50;7.75;;;;;12.84;72.89;100832.03;6302144;22;45456;-77
2023/01/12 11:14:57;;;;;;;;;2.00;0.00;;;;;12.92;72.44;100840.16;6302552;22;46701;-77
2023/01/12 11:17:53;;;;;;;;;1.50;0.75;;;;;12.93;72.77;100834.78;6301789;22;46088;-75
2023/01/12 11:20:21;;;;;;;;;1.00;0.00;;;;;12.96;72.75;100826.63;6301261;22;45522;-77
2023/01/12 11:26:21;;;;;;;;;0.50;0.00;;;;;12.99;71.91;100822.94;6301728;22;45984;-75
2023/01/12 11:28:51;;;;;;;;;2.00;1.00;;;;;13.00;72.16;100822.00;6301099;22;47335;-76
2023/01/12 11:31:41;;;;;;;;;1.75;0.75;;;;;13.03;71.66;100822.59;6273798;22;45597;-77
2023/01/12 11:34:17;;;;;;;;;1.00;1.00;;;;;13.01;72.11;100810.50;6301888;22;45474;-77
2023/01/12 11:36:48;;;;;;;;;1.00;0.00;;;;;12.97;71.62;100804.66;6302471;22;46799;-76
2023/01/12 11:45:40;;;;;;;;;0.75;0.75;;;;;13.04;71.68;100810.28;6303029;22;45649;-77
2023/01/12 11:48:25;;;;;;;;;0.00;0.00;;;;;13.08;72.06;100816.13;6302995;22;46824;-77
2023/01/12 11:50:52;;;;;;;;;1.00;0.00;;;;;13.08;72.29;100809.06;6303107;22;45600;-76
2023/01/12 11:53:23;;;;;;;;;0.00;0.00;;;;;13.09;71.67;100815.16;6302642;22;45829;-76
2023/01/12 11:56:08;;;;;;;;;0.25;0.00;;;;;13.09;72.12;100813.38;6303125;22;45482;-76
2023/01/12 11:59:09;;;;;;;;;0.00;0.00;;;;;13.06;72.00;100794.38;6302389;22;47521;-75
2023/01/12 12:01:53;;;;;;;;;0.00;0.00;;;;;13.07;71.51;100804.75;6303520;22;47391;-77
2023/01/12 12:04:30;;;;;;;;;0.75;0.00;;;;;13.11;71.50;100808.00;6303493;22;45409;-78
2023/01/12 12:07:11;;;;;;;;;0.00;0.00;;;;;13.14;71.52;100805.16;6302881;22;45505;-77
2023/01/12 12:09:50;;;;;;;;;1.75;0.00;;;;;13.16;71.84;100804.09;6275123;22;47074;-76
2023/01/12 12:12:24;;;;;;;;;2.25;0.00;;;;;13.19;71.57;100800.38;6302654;22;46622;-76
2023/01/12 12:15:08;;;;;;;;;1.00;0.00;;;;;13.20;71.91;100795.00;6302914;22;45530;-77
2023/01/12 12:17:51;;;;;;;;;1.50;1.00;;;;;13.21;71.97;100791.41;6302839;22;45562;-77
2023/01/12 12:20:31;;;;;;;;;1.50;0.00;;;;;13.23;71.75;100786.00;6302328;22;46566;-77
2023/01/12 12:26:39;;;;;;;;;2.00;0.00;;;;;13.22;71.47;100747.53;6303039;22;45503;-75
2023/01/12 12:29:15;;;;;;;;;1.00;0.00;;;;;13.28;71.33;100757.56;6303271;22;45816;-77
2023/01/12 12:31:56;;;;;;;;;0.00;0.00;;;;;13.29;71.30;100767.94;6302253;22;46273;-77
2023/01/12 12:35:06;;;;;;;;;1.00;0.00;;;;;13.32;71.04;100756.34;6302243;22;46399;-76
2023/01/12 12:38:05;;;;;;;;;1.00;0.00;;;;;13.34;71.46;100750.00;6302829;22;45600;-77
2023/01/12 12:47:28;;;;;;;;;1.00;0.00;;;;;13.36;71.47;100729.66;6303472;22;45824;-77
2023/01/12 12:49:56;;;;;;;;;0.00;0.00;;;;;13.35;71.21;100720.09;6303126;22;45680;-76
2023/01/12 12:52:26;;;;;;;;;0.00;0.00;;;;;13.34;70.66;100707.88;6302809;22;45665;-77
2023/01/12 12:54:54;;;;;;;;;1.00;0.00;;;;;13.36;70.68;100718.28;6303348;22;46143;-77
2023/01/12 12:57:19;;;;;;;;;0.50;0.00;;;;;13.35;70.42;100706.94;6302488;22;46200;-75
2023/01/12 12:59:55;;;;;;;;;2.00;0.00;;;;;13.38;70.52;100711.97;6304181;22;45575;-76
2023/01/12 13:02:54;;;;;;;;;0.50;0.00;;;;;13.42;70.11;100715.16;6304033;22;45797;-77
2023/01/12 13:05:45;;;;;;;;;0.25;0.25;;;;;13.43;70.16;100706.31;6177417;23;46585;-76
2023/01/12 13:11:46;;;;;;;;;0.50;0.00;;;;;13.51;70.24;100688.09;6176118;23;45442;-77
2023/01/12 13:14:34;;;;;;;;;0.00;0.00;;;;;13.52;70.16;100681.88;6177486;23;45545;-77
2023/01/12 13:17:14;;;;;;;;;0.00;0.00;;;;;13.55;69.90;100688.69;6177672;23;47084;-75
2023/01/12 13:19:43;;;;;;;;;3.00;0.25;;;;;13.57;69.76;100697.28;6176550;23;45552;-78
2023/01/12 13:22:47;;;;;;;;;1.00;0.00;;;;;13.58;69.96;100673.47;6176262;23;45636;-75
2023/01/12 13:28:34;;;;;;;;;0.00;0.00;;;;;13.56;69.39;100695.59;6175134;23;45903;-78
2023/01/12 13:31:01;;;;;;;;;0.50;0.00;;;;;13.49;69.37;100676.03;6175676;23;45800;-77
2023/01/12 13:33:28;;;;;;;;;3.00;1.00;;;;;13.35;69.48;100650.84;6174984;22;45925;-78
2023/01/12 13:36:03;;;;;;;;;0.00;0.00;;;;;13.48;69.92;100658.56;6176898;23;45628;-76
2023/01/12 13:45:07;;;;;;;;;1.00;0.00;;;;;13.50;69.72;100651.34;6207093;22;45639;-78
2023/01/12 13:47:35;;;;;;;;;0.00;0.00;;;;;13.57;69.60;100669.16;6207004;22;45535;-78
2023/01/12 13:50:01;;;;;;;;;1.00;0.00;;;;;13.51;69.67;100653.03;6207725;22;46619;-76